createdAt,value
2017-02-13T00:00:10.659Z,0
2017-02-13T00:00:51.896Z,0
2017-02-13T00:01:32.286Z,0
2017-02-13T00:02:13.305Z,0
2017-02-13T00:02:53.721Z,0
2017-02-13T00:03:34.670Z,0
2017-02-13T00:04:15.052Z,0
2017-02-13T00:04:55.480Z,0
2017-02-13T00:05:36.644Z,0
2017-02-13T00:06:17.762Z,0
2017-02-13T00:06:59.050Z,0
2017-02-13T00:07:40.143Z,0
2017-02-13T00:08:20.561Z,0
2017-02-13T00:09:01.831Z,0
2017-02-13T00:09:42.209Z,0
2017-02-13T00:10:22.619Z,0
2017-02-13T00:11:03.057Z,0
2017-02-13T00:11:44.421Z,0
2017-02-13T00:12:24.812Z,0
2017-02-13T00:13:05.237Z,0
2017-02-13T00:13:45.601Z,0
2017-02-13T00:14:26.047Z,0
2017-02-13T00:15:06.441Z,0
2017-02-13T00:15:46.858Z,0
2017-02-13T00:16:27.267Z,0
2017-02-13T00:17:08.565Z,0
2017-02-13T00:17:49.608Z,0
2017-02-13T00:18:31.680Z,0
2017-02-13T00:19:12.884Z,0
2017-02-13T00:19:53.293Z,0
2017-02-13T00:20:33.677Z,0
2017-02-13T00:21:14.703Z,0
2017-02-13T00:21:55.114Z,0
2017-02-13T00:22:37.079Z,0
2017-02-13T00:23:17.490Z,0
2017-02-13T00:23:57.880Z,0
2017-02-13T00:24:38.286Z,0
2017-02-13T00:25:20.152Z,0
2017-02-13T00:26:00.586Z,0
2017-02-13T00:26:40.985Z,0
2017-02-13T00:27:22.317Z,0
2017-02-13T00:28:03.615Z,0
2017-02-13T00:28:44.003Z,0
2017-02-13T00:29:24.402Z,0
2017-02-13T00:30:19.646Z,0
2017-02-13T00:31:02.584Z,0
2017-02-13T00:31:45.625Z,0
2017-02-13T00:32:29.736Z,0
2017-02-13T00:33:10.093Z,0
2017-02-13T00:33:52.560Z,0
2017-02-13T00:34:32.935Z,0
2017-02-13T00:35:13.388Z,0
2017-02-13T00:35:53.775Z,0
2017-02-13T00:36:34.156Z,0
2017-02-13T00:37:15.083Z,0
2017-02-13T00:37:55.540Z,0
2017-02-13T00:38:35.907Z,0
2017-02-13T00:40:54.394Z,0
2017-02-13T00:41:43.354Z,0
2017-02-13T00:42:31.841Z,0
2017-02-13T00:43:20.531Z,0
2017-02-13T00:44:00.193Z,0
2017-02-13T00:44:40.587Z,0
2017-02-13T00:45:21.148Z,0
2017-02-13T00:46:01.549Z,0
2017-02-13T00:46:41.945Z,0
2017-02-13T00:47:23.200Z,0
2017-02-13T00:48:04.211Z,0
2017-02-13T00:48:44.658Z,0
2017-02-13T00:49:25.034Z,0
2017-02-13T00:50:05.395Z,0
2017-02-13T00:50:46.340Z,0
2017-02-13T00:51:26.732Z,0
2017-02-13T00:52:07.136Z,0
2017-02-13T00:52:47.515Z,0
2017-02-13T00:53:30.506Z,0
2017-02-13T00:54:10.940Z,0
2017-02-13T00:54:51.314Z,0
2017-02-13T00:55:31.742Z,0
2017-02-13T00:56:14.991Z,0
2017-02-13T00:56:56.414Z,0
2017-02-13T00:57:36.765Z,0
2017-02-13T00:58:23.758Z,0
2017-02-13T00:59:04.154Z,0
2017-02-13T00:59:45.214Z,0
2017-02-13T01:00:26.492Z,0
2017-02-13T01:01:07.635Z,0
2017-02-13T01:01:48.063Z,0
2017-02-13T01:02:28.472Z,0
2017-02-13T01:03:08.850Z,0
2017-02-13T01:03:49.993Z,0
2017-02-13T01:04:30.417Z,0
2017-02-13T01:05:10.801Z,0
2017-02-13T01:05:53.828Z,0
2017-02-13T01:06:34.783Z,0
2017-02-13T01:07:15.996Z,0
2017-02-13T01:07:56.444Z,0
2017-02-13T01:08:36.844Z,0
2017-02-13T01:09:17.256Z,0
2017-02-13T01:09:57.651Z,0
2017-02-13T01:10:39.190Z,0
2017-02-13T01:11:19.559Z,0
2017-02-13T01:11:59.967Z,0
2017-02-13T01:12:40.364Z,0
2017-02-13T01:13:22.745Z,0
2017-02-13T01:14:03.156Z,0
2017-02-13T01:14:43.534Z,0
2017-02-13T01:15:23.945Z,0
2017-02-13T01:16:04.371Z,0
2017-02-13T01:16:44.783Z,0
2017-02-13T01:17:25.152Z,0
2017-02-13T01:18:05.615Z,0
2017-02-13T01:18:45.994Z,0
2017-02-13T01:19:26.377Z,0
2017-02-13T01:20:06.832Z,0
2017-02-13T01:20:47.246Z,0
2017-02-13T01:21:27.645Z,0
2017-02-13T01:24:04.528Z,0
2017-02-13T01:24:53.006Z,0
2017-02-13T01:25:41.501Z,0
2017-02-13T01:26:30.404Z,0
2017-02-13T11:49:19.095Z,770
2017-02-13T11:50:01.376Z,770
2017-02-13T11:50:42.060Z,765
2017-02-13T11:51:22.476Z,770
2017-02-13T11:52:02.863Z,770
2017-02-13T11:52:43.243Z,745
2017-02-13T11:53:23.646Z,760
2017-02-13T11:54:04.077Z,755
2017-02-13T11:54:44.514Z,750
2017-02-13T11:55:24.949Z,740
2017-02-13T11:56:05.397Z,750
2017-02-13T11:56:45.795Z,740
2017-02-13T11:57:26.185Z,740
2017-02-13T11:58:06.590Z,755
2017-02-13T11:58:47.040Z,745
2017-02-13T11:59:27.457Z,740
2017-02-13T12:00:07.900Z,725
2017-02-13T12:00:48.291Z,740
2017-02-13T12:01:28.745Z,745
2017-02-13T12:02:09.192Z,740
2017-02-13T12:02:49.593Z,730
2017-02-13T12:03:30.063Z,730
2017-02-13T12:04:10.419Z,730
2017-02-13T12:04:50.883Z,725
2017-02-13T12:05:31.314Z,730
2017-02-13T12:06:11.716Z,725
2017-02-13T12:06:52.117Z,710
2017-02-13T12:07:32.530Z,715
2017-02-13T12:08:12.911Z,725
2017-02-13T12:08:53.322Z,725
2017-02-13T12:09:33.736Z,720
2017-02-13T12:10:14.275Z,720
2017-02-13T12:10:54.749Z,725
2017-02-13T12:11:35.165Z,715
2017-02-13T12:12:15.628Z,715
2017-02-13T12:12:56.028Z,710
2017-02-13T12:13:36.504Z,705
2017-02-13T12:14:16.921Z,705
2017-02-13T12:14:57.384Z,715
2017-02-13T12:15:37.811Z,710
2017-02-13T12:16:18.227Z,705
2017-02-13T12:16:58.592Z,705
2017-02-13T12:17:39.104Z,705
2017-02-13T12:18:19.985Z,705
2017-02-13T12:19:00.393Z,705
2017-02-13T12:19:40.791Z,700
2017-02-13T12:20:22.343Z,705
2017-02-13T12:21:02.756Z,700
2017-02-13T12:21:43.242Z,705
2017-02-13T12:22:23.637Z,710
2017-02-13T12:23:04.824Z,710
2017-02-13T12:23:45.252Z,695
2017-02-13T12:24:25.607Z,695
2017-02-13T12:25:06.039Z,700
2017-02-13T12:25:46.440Z,695
2017-02-13T12:26:26.895Z,690
2017-02-13T12:27:07.287Z,685
2017-02-13T12:27:48.748Z,690
2017-02-13T12:28:29.271Z,690
2017-02-13T12:29:09.625Z,680
2017-02-13T12:29:50.055Z,680
2017-02-13T12:30:30.462Z,675
2017-02-13T12:31:10.867Z,680
2017-02-13T12:31:52.261Z,675
2017-02-13T12:32:32.661Z,670
2017-02-13T12:33:13.090Z,670
2017-02-13T12:33:53.490Z,670
2017-02-13T12:34:33.969Z,670
2017-02-13T12:35:14.350Z,670
2017-02-13T12:35:54.775Z,660
2017-02-13T12:36:35.181Z,665
2017-02-13T12:37:15.622Z,660
2017-02-13T12:37:56.054Z,655
2017-02-13T12:38:36.430Z,655
2017-02-13T12:39:16.870Z,655
2017-02-13T12:39:57.444Z,655
2017-02-13T12:40:37.853Z,645
2017-02-13T12:41:18.250Z,655
2017-02-13T12:41:59.335Z,655
2017-02-13T12:42:39.762Z,655
2017-02-13T12:43:20.163Z,650
2017-02-13T12:45:21.417Z,650
2017-02-13T12:45:31.413Z,655
2017-02-13T12:45:31.853Z,645
2017-02-13T12:46:01.903Z,645
2017-02-13T12:46:42.301Z,640
2017-02-13T12:47:22.881Z,630
2017-02-13T12:48:03.307Z,640
2017-02-13T12:48:43.718Z,630
2017-02-13T12:49:24.112Z,630
2017-02-13T12:50:04.571Z,625
2017-02-13T12:50:44.948Z,630
2017-02-13T12:51:25.375Z,625
2017-02-13T12:52:05.794Z,625
2017-02-13T12:52:49.508Z,620
2017-02-13T12:53:29.893Z,615
2017-02-13T12:54:10.326Z,615
2017-02-13T12:54:50.753Z,615
2017-02-13T12:55:31.205Z,615
2017-02-13T12:56:11.634Z,605
2017-02-13T12:56:52.598Z,610
2017-02-13T12:57:32.996Z,610
2017-02-13T12:58:14.310Z,600
2017-02-13T12:58:54.762Z,595
2017-02-13T12:59:35.170Z,600
2017-02-13T13:00:15.578Z,590
2017-02-13T13:00:56.094Z,590
2017-02-13T13:01:36.528Z,595
2017-02-13T13:02:18.580Z,590
2017-02-13T13:03:00.520Z,590
2017-02-13T13:03:40.914Z,590
2017-02-13T13:04:21.372Z,585
2017-02-13T13:05:02.618Z,580
2017-02-13T13:05:42.999Z,585
2017-02-13T13:06:23.460Z,575
2017-02-13T13:07:03.871Z,575
2017-02-13T13:07:44.308Z,575
2017-02-13T13:08:24.859Z,575
2017-02-13T13:09:05.259Z,575
2017-02-13T13:09:45.648Z,555
2017-02-13T13:10:26.071Z,550
2017-02-13T13:11:08.117Z,555
2017-02-13T13:11:49.570Z,565
2017-02-13T13:12:30.517Z,560
2017-02-13T13:13:11.627Z,560
2017-02-13T13:13:53.027Z,555
2017-02-13T13:14:33.461Z,545
2017-02-13T13:15:13.905Z,535
2017-02-13T13:15:55.131Z,540
2017-02-13T13:16:36.361Z,545
2017-02-13T13:17:17.361Z,545
2017-02-13T13:17:58.296Z,540
2017-02-13T13:18:39.860Z,535
2017-02-13T13:19:21.211Z,530
2017-02-13T13:20:03.526Z,530
2017-02-13T13:20:43.963Z,525
2017-02-13T13:21:24.382Z,530
2017-02-13T13:22:04.883Z,525
2017-02-13T13:22:45.370Z,520
2017-02-13T13:23:26.724Z,520
2017-02-13T13:24:07.773Z,520
2017-02-13T13:24:48.503Z,510
2017-02-13T13:25:29.176Z,505
2017-02-13T13:26:10.323Z,515
2017-02-13T13:28:31.253Z,490
2017-02-13T13:29:19.703Z,490
2017-02-13T13:30:07.596Z,495
2017-02-13T13:30:55.939Z,490
2017-02-13T13:31:38.918Z,480
2017-02-13T13:34:08.303Z,465
2017-02-13T13:36:27.769Z,445
2017-02-13T13:37:15.482Z,440
2017-02-13T13:38:04.007Z,435
2017-02-13T13:38:52.618Z,430
2017-02-13T13:39:41.048Z,430
2017-02-13T13:40:21.015Z,430
2017-02-13T13:41:02.345Z,415
2017-02-13T13:41:46.362Z,405
2017-02-13T13:42:27.500Z,400
2017-02-13T17:13:00.489Z,0
2017-02-13T17:13:49.411Z,0
2017-02-13T17:14:37.868Z,0
2017-02-13T17:15:26.528Z,0
2017-02-13T17:16:15.504Z,0
2017-02-13T17:17:03.678Z,0
2017-02-13T17:17:52.796Z,0
2017-02-13T17:18:40.978Z,0
2017-02-13T17:19:30.393Z,0
2017-02-13T17:20:18.342Z,0
2017-02-13T17:21:06.992Z,0
2017-02-13T17:23:29.657Z,0
2017-02-13T17:24:18.592Z,0
2017-02-13T17:25:07.123Z,0
2017-02-13T17:25:55.850Z,0
2017-02-13T17:26:45.088Z,0
2017-02-13T17:27:33.320Z,0
2017-02-13T17:28:21.822Z,0
2017-02-13T17:29:10.887Z,0
2017-02-13T17:29:59.636Z,0
2017-02-13T17:30:48.177Z,0
2017-02-13T17:31:36.830Z,0
2017-02-13T17:32:25.156Z,0
2017-02-13T17:33:13.632Z,0
2017-02-13T17:34:02.299Z,0
2017-02-13T17:34:51.083Z,0
2017-02-13T17:35:39.368Z,0
2017-02-13T17:36:28.249Z,0
2017-02-13T17:37:16.796Z,0
2017-02-13T17:38:05.792Z,0
2017-02-13T17:38:53.867Z,0
2017-02-13T17:39:42.637Z,0
2017-02-13T17:40:31.203Z,0
2017-02-13T17:41:20.017Z,0
2017-02-13T17:42:08.349Z,0
2017-02-13T17:42:56.740Z,0
2017-02-13T17:43:45.372Z,0
2017-02-13T17:44:34.169Z,0
2017-02-13T17:45:22.642Z,0
2017-02-13T17:46:12.013Z,0
2017-02-13T17:47:01.669Z,0
2017-02-13T17:47:50.112Z,0
2017-02-13T17:48:38.467Z,0
2017-02-13T17:49:29.524Z,0
2017-02-13T17:50:17.795Z,0
2017-02-13T17:51:06.584Z,0
2017-02-13T18:14:28.624Z,0
2017-02-13T18:15:16.161Z,0
2017-02-13T18:16:04.655Z,0
2017-02-13T18:16:52.903Z,0
2017-02-13T18:17:41.396Z,0
2017-02-13T18:18:30.841Z,0
2017-02-13T18:19:19.490Z,0
2017-02-13T18:20:08.252Z,0
2017-02-13T18:20:57.017Z,0
2017-02-13T18:21:45.543Z,0
2017-02-13T18:22:34.185Z,0
2017-02-13T18:23:27.064Z,0
2017-02-13T18:24:15.249Z,0
2017-02-13T18:25:04.087Z,0
2017-02-13T18:25:52.925Z,0
2017-02-13T18:26:41.573Z,0
2017-02-13T18:27:29.832Z,0
2017-02-13T18:28:18.390Z,0
2017-02-13T18:29:07.383Z,0
2017-02-13T18:29:55.933Z,0
2017-02-13T18:30:44.117Z,0
2017-02-13T18:31:32.910Z,0
2017-02-13T18:32:21.535Z,0
2017-02-13T18:33:10.552Z,0
2017-02-13T18:33:58.993Z,0
2017-02-13T18:34:47.116Z,0
2017-02-13T18:35:35.799Z,0
2017-02-13T18:36:24.549Z,0
2017-02-13T18:37:14.257Z,0
2017-02-13T18:38:02.234Z,0
2017-02-13T18:38:51.169Z,0
2017-02-13T18:39:39.413Z,0
2017-02-13T18:40:28.931Z,0
2017-02-13T18:41:17.637Z,0
2017-02-13T18:42:06.419Z,0
2017-02-13T18:42:54.599Z,0
2017-02-13T18:43:43.397Z,0
2017-02-13T18:44:31.941Z,0
2017-02-13T18:45:20.684Z,0
2017-02-13T18:46:09.219Z,0
2017-02-13T18:46:58.053Z,0
2017-02-13T18:47:46.923Z,0
2017-02-13T18:48:35.132Z,0
2017-02-13T18:49:23.823Z,0
2017-02-13T18:50:12.812Z,0
2017-02-13T18:51:01.931Z,0
2017-02-13T18:51:51.908Z,0
2017-02-13T18:52:40.386Z,0
2017-02-13T18:53:29.419Z,0
2017-02-13T18:54:18.045Z,0
2017-02-13T18:55:06.774Z,0
2017-02-13T18:55:56.023Z,0
2017-02-13T18:56:44.584Z,0
2017-02-13T18:57:33.185Z,0
2017-02-13T18:58:21.776Z,0
2017-02-13T18:59:11.348Z,0
2017-02-13T19:00:00.196Z,0
2017-02-13T19:00:48.793Z,0
2017-02-13T19:01:37.685Z,0
2017-02-13T19:02:26.593Z,0
2017-02-13T19:03:14.767Z,0
2017-02-13T19:04:04.020Z,0
2017-02-13T19:04:52.703Z,0
2017-02-13T19:05:41.546Z,0
2017-02-13T19:06:30.239Z,0
2017-02-13T19:07:18.816Z,0
2017-02-13T19:08:07.099Z,0
2017-02-13T19:08:56.136Z,0
2017-02-13T19:09:44.261Z,0
2017-02-13T19:10:33.103Z,0
2017-02-13T19:11:21.475Z,0
2017-02-13T19:12:10.577Z,0
2017-02-13T19:12:59.034Z,0
2017-02-13T19:13:48.058Z,0
2017-02-13T19:14:36.722Z,0
2017-02-13T19:15:24.844Z,0
2017-02-13T19:16:13.516Z,0
2017-02-13T19:17:02.473Z,0
2017-02-13T19:17:52.032Z,0
2017-02-13T19:18:40.771Z,0
2017-02-13T19:19:29.079Z,0
2017-02-13T19:20:17.791Z,0
2017-02-13T19:21:06.418Z,0
2017-02-13T19:21:55.048Z,0
2017-02-13T19:22:43.838Z,0
2017-02-13T19:23:32.760Z,0
2017-02-13T19:24:21.377Z,0
2017-02-13T19:25:10.048Z,0
2017-02-13T19:25:58.782Z,0
2017-02-13T19:26:47.219Z,0
2017-02-13T19:27:36.029Z,0
2017-02-13T19:28:24.362Z,0
2017-02-13T19:29:12.743Z,0
2017-02-13T19:30:02.029Z,0
2017-02-13T19:30:50.330Z,0
2017-02-13T19:31:39.124Z,0
2017-02-13T19:32:28.005Z,0
2017-02-13T19:33:16.145Z,0
2017-02-13T19:34:04.713Z,0
2017-02-13T19:34:53.677Z,0
2017-02-13T19:35:42.572Z,0
2017-02-13T19:36:30.933Z,0
2017-02-13T19:37:19.763Z,0
2017-02-13T19:38:08.666Z,0
2017-02-13T19:38:57.134Z,0
2017-02-13T19:39:46.007Z,0
2017-02-13T19:40:34.766Z,0
2017-02-13T19:41:23.084Z,0
2017-02-13T19:42:11.965Z,0
2017-02-13T19:42:52.456Z,0
2017-02-13T19:43:33.007Z,0
2017-02-13T19:44:13.445Z,0
2017-02-13T19:44:53.903Z,0
2017-02-13T19:45:35.126Z,0
2017-02-13T19:46:15.515Z,0
2017-02-13T19:46:56.059Z,0
2017-02-13T19:47:36.355Z,0
2017-02-13T19:48:17.064Z,0
2017-02-13T19:48:57.450Z,0
2017-02-13T19:49:38.715Z,0
2017-02-13T19:50:19.123Z,0
2017-02-13T19:50:59.565Z,0
2017-02-13T19:51:40.769Z,0
2017-02-13T19:52:21.233Z,0
2017-02-13T19:53:01.599Z,0
2017-02-13T19:53:42.179Z,0
2017-02-13T19:54:23.407Z,0
2017-02-13T19:55:05.435Z,0
2017-02-13T19:55:45.847Z,0
2017-02-13T19:56:27.720Z,0
2017-02-13T19:57:08.118Z,0
2017-02-13T19:57:48.565Z,0
2017-02-13T19:58:29.753Z,0
2017-02-13T19:59:10.171Z,0
2017-02-13T19:59:50.562Z,0
2017-02-13T20:00:31.016Z,0
2017-02-13T20:01:12.004Z,0
2017-02-13T20:01:52.340Z,0
2017-02-13T20:02:33.307Z,0
2017-02-13T20:03:13.705Z,0
2017-02-13T20:03:54.125Z,0
2017-02-13T20:04:34.550Z,0
2017-02-13T20:05:14.978Z,0
2017-02-13T20:05:55.368Z,0
2017-02-13T20:06:35.773Z,0
2017-02-13T20:07:21.480Z,0
2017-02-13T20:08:02.536Z,0
2017-02-13T20:08:42.981Z,0
2017-02-13T20:09:25.064Z,0
2017-02-13T20:10:05.455Z,0
2017-02-13T20:12:31.206Z,0
2017-02-13T20:13:18.278Z,0
2017-02-13T20:14:07.608Z,0
2017-02-13T20:14:56.249Z,0
2017-02-13T20:15:44.267Z,0
2017-02-13T20:16:32.851Z,0
2017-02-13T20:17:21.503Z,0
2017-02-13T20:18:10.142Z,0
2017-02-13T20:18:58.679Z,0
2017-02-13T20:19:47.269Z,0
2017-02-13T20:20:36.055Z,0
2017-02-13T20:21:24.775Z,0
2017-02-13T20:27:26.797Z,0
2017-02-13T20:28:15.369Z,0
2017-02-13T20:29:04.199Z,0
2017-02-13T20:29:52.607Z,0
2017-02-13T20:30:41.677Z,0
2017-02-13T20:31:29.764Z,0
2017-02-13T20:34:10.135Z,0
2017-02-13T20:34:57.518Z,0
2017-02-13T20:35:46.641Z,0
2017-02-13T20:36:35.018Z,0
2017-02-13T20:37:23.876Z,0
2017-02-13T20:38:17.853Z,0
2017-02-13T20:39:07.962Z,0
2017-02-13T20:39:55.233Z,0
2017-02-13T20:40:44.136Z,0
2017-02-13T20:41:32.802Z,0
2017-02-13T20:42:21.293Z,0
2017-02-13T20:43:09.367Z,0
2017-02-13T20:43:58.002Z,0
2017-02-13T20:44:46.530Z,0
2017-02-13T20:45:35.348Z,0
2017-02-13T20:46:24.054Z,0
2017-02-13T20:47:12.495Z,0
2017-02-13T20:48:01.956Z,0
2017-02-13T20:48:50.478Z,0
2017-02-13T20:49:39.223Z,0
2017-02-13T20:50:28.007Z,0
2017-02-13T20:51:17.491Z,0
2017-02-13T20:52:06.164Z,0
2017-02-13T20:52:54.542Z,0
2017-02-13T20:53:43.346Z,0
2017-02-13T20:54:31.868Z,0
2017-02-13T20:55:20.332Z,0
2017-02-13T20:56:09.516Z,0
2017-02-13T20:56:57.771Z,0
2017-02-13T20:57:46.389Z,0
2017-02-13T20:58:35.344Z,0
2017-02-13T20:59:23.666Z,0
2017-02-13T21:00:12.792Z,0
2017-02-13T21:30:34.706Z,0
2017-02-13T21:31:21.987Z,0
2017-02-13T21:32:11.025Z,0
2017-02-13T21:34:30.163Z,0
2017-02-13T21:35:18.021Z,0
2017-02-13T21:36:05.746Z,0
2017-02-13T21:36:54.300Z,0
2017-02-13T21:37:42.424Z,0
2017-02-13T21:47:23.575Z,0
2017-02-13T21:48:12.341Z,0
2017-02-13T21:50:54.040Z,0
2017-02-13T21:58:08.021Z,0
2017-02-13T21:58:56.808Z,0
2017-02-13T22:01:36.292Z,0
2017-02-13T22:02:24.893Z,0
2017-02-13T22:03:13.783Z,0
2017-02-13T22:04:01.941Z,0
2017-02-13T22:04:50.400Z,0
2017-02-13T22:05:39.420Z,0
2017-02-13T22:06:28.741Z,0
2017-02-13T22:07:17.829Z,0
2017-02-13T22:08:05.766Z,0
2017-02-13T22:08:54.892Z,0
2017-02-13T22:15:50.254Z,0
2017-02-13T22:16:38.427Z,0
2017-02-13T22:17:26.973Z,0
2017-02-13T22:18:15.872Z,0
2017-02-13T22:19:04.141Z,0
2017-02-13T22:19:52.547Z,0
2017-02-13T22:20:41.245Z,0
2017-02-13T22:21:30.258Z,0
2017-02-13T22:22:18.603Z,0
2017-02-13T22:23:10.300Z,0
2017-02-13T22:23:58.940Z,0
2017-02-13T22:24:48.787Z,0
2017-02-13T22:25:37.325Z,0
2017-02-13T22:26:25.832Z,0
2017-02-13T22:27:21.510Z,0
2017-02-13T22:28:10.720Z,0
2017-02-13T22:35:16.858Z,0
2017-02-13T22:36:05.025Z,0
2017-02-13T22:36:53.658Z,0
2017-02-13T22:37:42.544Z,0
2017-02-13T22:38:30.956Z,0
2017-02-13T22:39:19.555Z,0
2017-02-13T22:40:07.084Z,0
2017-02-13T22:40:54.781Z,0
2017-02-13T22:41:43.085Z,0
2017-02-13T22:42:31.708Z,0
2017-02-13T22:43:20.443Z,0
2017-02-13T22:44:09.365Z,0
2017-02-13T22:44:57.580Z,0
2017-02-13T22:45:46.174Z,0
2017-02-13T22:46:34.854Z,0
2017-02-13T22:47:23.492Z,0
2017-02-13T22:48:12.118Z,0
2017-02-13T22:49:00.925Z,0
2017-02-13T22:49:49.482Z,0
2017-02-13T22:50:29.612Z,0
2017-02-13T22:51:10.063Z,0
2017-02-13T22:51:52.153Z,0
2017-02-13T22:52:32.557Z,0
2017-02-13T22:53:14.300Z,0
2017-02-13T22:53:56.332Z,0
2017-02-13T22:54:38.665Z,0
2017-02-13T22:55:21.088Z,0
2017-02-13T22:56:01.489Z,0
2017-02-13T22:56:42.468Z,0
2017-02-13T22:57:22.895Z,0
2017-02-13T22:58:03.312Z,0
2017-02-13T22:58:44.480Z,0
2017-02-13T22:59:26.401Z,0
2017-02-13T23:00:06.802Z,0
2017-02-13T23:00:47.244Z,0
2017-02-13T23:01:27.683Z,0
2017-02-13T23:02:08.218Z,0
2017-02-13T23:04:28.578Z,0
2017-02-13T23:05:16.362Z,0
2017-02-13T23:11:58.261Z,0
2017-02-13T23:12:46.339Z,0
2017-02-13T23:13:35.077Z,0
2017-02-13T23:14:23.501Z,0
2017-02-13T23:15:12.286Z,0
2017-02-13T23:16:00.886Z,0
2017-02-13T23:16:46.596Z,0
2017-02-13T23:17:35.068Z,0
2017-02-13T23:18:23.849Z,0
2017-02-13T23:19:12.780Z,0
2017-02-13T23:26:45.768Z,0
2017-02-13T23:27:34.693Z,0
2017-02-13T23:28:23.073Z,0
2017-02-13T23:29:11.599Z,0
2017-02-13T23:30:00.508Z,0
2017-02-13T23:30:49.216Z,0
2017-02-13T23:31:37.823Z,0
2017-02-13T23:32:26.310Z,0
2017-02-13T23:33:14.491Z,0
2017-02-13T23:34:03.041Z,0
2017-02-13T23:34:51.614Z,0
2017-02-13T23:35:40.454Z,0
2017-02-13T23:36:28.622Z,0
2017-02-13T23:37:17.302Z,0
2017-02-13T23:38:06.005Z,0
2017-02-13T23:38:54.659Z,0
2017-02-13T23:39:42.996Z,0
2017-02-13T23:40:31.717Z,0
2017-02-13T23:41:20.345Z,0
2017-02-13T23:42:08.656Z,0
2017-02-13T23:42:57.666Z,0
2017-02-13T23:43:46.260Z,0
2017-02-13T23:44:34.790Z,0
2017-02-13T23:45:23.033Z,0
2017-02-13T23:46:11.563Z,0
2017-02-13T23:47:00.464Z,0
2017-02-13T23:47:48.813Z,0
2017-02-13T23:48:37.524Z,0
2017-02-13T23:49:26.258Z,0
2017-02-13T23:50:14.938Z,0
2017-02-13T23:51:05.163Z,0
2017-02-13T23:51:53.933Z,0
2017-02-13T23:52:43.780Z,0
2017-02-13T23:53:32.147Z,0
2017-02-13T23:54:20.816Z,0
2017-02-13T23:55:09.906Z,0
2017-02-13T23:55:58.446Z,0
2017-02-13T23:56:46.947Z,0
2017-02-13T23:57:35.646Z,0
2017-02-13T23:58:24.434Z,0
2017-02-13T23:59:13.320Z,0
